Terminal Aerodrome Forecast
Issued by NWS Amarillo, TX

Home | Current Version | Previous Version | Text Only | Print | Product List | Glossary On
Versions: 1 2 3 4 5 6 7 8 9 10 11 12 13 14 15 16 17
420
FTUS44 KAMA 171730 CCA
TAFGUY
TAF COR
KGUY 171730Z 1718/1818 35018G28KT P6SM SCT021
     FM180100 VRB04KT P6SM FEW150
     FM180900 21006KT 3SM BR BKN100
     FM181500 22010KT P6SM BKN100=

USA.gov is the U.S. government's official web portal to all federal, state and local government web resources and services.